createdAt,value
2023-02-22T00:00:24.340Z,101476.22
2023-02-22T00:03:01.621Z,101467.81
2023-02-22T00:05:33.080Z,101472.06
2023-02-22T00:08:04.178Z,101472.66
2023-02-22T00:10:35.376Z,101467.69
2023-02-22T00:13:08.802Z,101456.63
2023-02-22T00:15:42.932Z,101451.94
2023-02-22T00:18:19.992Z,101449.94
2023-02-22T00:20:51.060Z,101441.72
2023-02-22T00:23:24.078Z,101435.56
2023-02-22T00:25:55.440Z,101425.75
2023-02-22T00:28:26.911Z,101415.59
2023-02-22T00:30:59.047Z,101407.81
2023-02-22T00:33:30.279Z,101394.34
2023-02-22T00:36:02.124Z,101399.00
2023-02-22T00:38:33.615Z,101391.28
2023-02-22T00:41:06.094Z,101405.25
2023-02-22T00:43:37.417Z,101395.34
2023-02-22T00:46:09.042Z,101394.78
2023-02-22T00:48:40.225Z,101388.13
2023-02-22T00:51:11.566Z,101393.22
2023-02-22T00:53:42.841Z,101384.75
2023-02-22T00:56:13.968Z,101382.94
2023-02-22T00:58:46.124Z,101375.44
2023-02-22T01:01:17.550Z,101380.56
2023-02-22T01:03:48.279Z,101375.44
2023-02-22T01:06:20.207Z,101377.69
2023-02-22T01:08:52.014Z,101366.56
2023-02-22T01:11:23.877Z,101378.75
2023-02-22T01:13:58.072Z,101368.53
2023-02-22T01:16:29.260Z,101360.19
2023-02-22T01:19:01.649Z,101353.59
2023-02-22T01:21:33.070Z,101344.81
2023-02-22T01:24:05.212Z,101361.84
2023-02-22T01:26:36.531Z,101357.09
2023-02-22T01:29:08.686Z,101350.38
2023-02-22T01:31:40.180Z,101358.97
2023-02-22T01:34:14.404Z,101348.41
2023-02-22T01:36:45.517Z,101336.72
2023-02-22T01:39:19.343Z,101346.44
2023-02-22T01:41:50.314Z,101339.34
2023-02-22T01:44:36.849Z,101336.53
2023-02-22T01:47:10.370Z,101342.22
2023-02-22T01:49:48.636Z,101336.75
2023-02-22T01:52:22.883Z,101337.31
2023-02-22T01:54:58.135Z,101343.94
2023-02-22T01:57:38.687Z,101346.53
2023-02-22T02:00:13.787Z,101340.38
2023-02-22T02:02:55.775Z,101344.38
2023-02-22T02:05:29.132Z,101345.00
2023-02-22T02:08:04.932Z,101340.00
2023-02-22T02:10:36.484Z,101327.78
2023-02-22T02:13:09.354Z,101318.63
2023-02-22T02:16:00.138Z,101308.91
2023-02-22T02:18:34.086Z,101307.59
2023-02-22T02:21:26.197Z,101309.41
2023-02-22T02:24:13.738Z,101301.66
2023-02-22T02:27:10.651Z,101298.06
2023-02-22T02:29:59.591Z,101300.03
2023-02-22T02:32:38.276Z,101295.25
2023-02-22T02:35:35.054Z,101295.97
2023-02-22T02:38:24.702Z,101278.88
2023-02-22T02:41:12.602Z,101276.31
2023-02-22T02:43:43.920Z,101278.25
2023-02-22T02:46:20.423Z,101270.13
2023-02-22T02:48:59.877Z,101274.91
2023-02-22T02:51:34.665Z,101264.59
2023-02-22T02:54:07.029Z,101272.84
2023-02-22T02:59:29.430Z,101256.00
2023-02-22T03:05:09.278Z,101247.16
2023-02-22T03:07:44.411Z,101228.91
2023-02-22T03:10:27.514Z,101233.47
2023-02-22T03:13:29.406Z,101236.34
2023-02-22T03:16:04.209Z,101222.97
2023-02-22T03:18:45.291Z,101225.91
2023-02-22T03:21:37.966Z,101219.38
2023-02-22T03:24:24.479Z,101221.09
2023-02-22T03:27:19.474Z,101213.19
2023-02-22T03:29:54.079Z,101213.94
2023-02-22T03:32:30.144Z,101218.16
2023-02-22T03:35:16.525Z,101207.19
2023-02-22T03:37:50.729Z,101215.06
2023-02-22T03:40:31.000Z,101207.41
2023-02-22T03:43:23.949Z,101210.53
2023-02-22T03:45:57.568Z,101199.47
2023-02-22T03:48:28.173Z,101199.34
2023-02-22T03:50:59.953Z,101205.50
2023-02-22T03:53:31.946Z,101202.31
2023-02-22T03:56:04.523Z,101212.09
2023-02-22T03:58:37.277Z,101201.09
2023-02-22T04:01:08.801Z,101200.03
2023-02-22T04:03:41.606Z,101193.59
2023-02-22T04:06:13.132Z,101200.19
2023-02-22T04:08:45.528Z,101203.16
2023-02-22T04:11:17.209Z,101195.44
2023-02-22T04:13:48.913Z,101195.53
2023-02-22T04:16:20.133Z,101202.44
2023-02-22T04:18:51.146Z,101210.72
2023-02-22T04:21:23.339Z,101205.41
2023-02-22T04:23:54.942Z,101207.66
2023-02-22T04:26:26.101Z,101203.22
2023-02-22T04:28:59.881Z,101207.66
2023-02-22T04:31:38.018Z,101211.16
2023-02-22T04:34:08.934Z,101206.28
2023-02-22T04:36:45.755Z,101200.94
2023-02-22T04:39:18.331Z,101199.00
2023-02-22T04:41:58.092Z,101197.47
2023-02-22T04:44:29.836Z,101200.13
2023-02-22T04:47:00.989Z,101187.81
2023-02-22T04:49:32.103Z,101189.97
2023-02-22T04:52:03.289Z,101182.63
2023-02-22T04:54:38.565Z,101191.31
2023-02-22T04:57:10.217Z,101180.94
2023-02-22T04:59:42.121Z,101178.81
2023-02-22T05:02:15.418Z,101180.19
2023-02-22T05:04:46.749Z,101185.34
2023-02-22T05:07:18.016Z,101180.44
2023-02-22T05:09:49.145Z,101178.91
2023-02-22T05:12:20.422Z,101175.88
2023-02-22T05:14:51.241Z,101177.09
2023-02-22T05:17:22.310Z,101174.41
2023-02-22T05:19:53.639Z,101178.03
2023-02-22T05:22:24.603Z,101177.44
2023-02-22T05:24:55.923Z,101179.50
2023-02-22T05:27:26.983Z,101177.47
2023-02-22T05:29:58.365Z,101166.84
2023-02-22T05:32:29.506Z,101170.16
2023-02-22T05:35:00.179Z,101170.13
2023-02-22T05:37:31.041Z,101164.19
2023-02-22T05:40:02.211Z,101163.16
2023-02-22T05:42:33.588Z,101158.31
2023-02-22T05:45:05.894Z,101167.22
2023-02-22T05:47:36.864Z,101159.94
2023-02-22T05:50:11.868Z,101164.50
2023-02-22T05:52:44.636Z,101159.91
2023-02-22T05:55:17.475Z,101162.44
2023-02-22T05:57:49.353Z,101172.66
2023-02-22T06:00:26.441Z,101166.03
2023-02-22T06:03:05.108Z,101167.81
2023-02-22T06:05:36.682Z,101166.47
2023-02-22T06:08:09.270Z,101161.09
2023-02-22T06:10:40.134Z,101169.69
2023-02-22T06:13:11.578Z,101175.72
2023-02-22T06:15:42.684Z,101168.38
2023-02-22T06:18:14.146Z,101178.63
2023-02-22T06:20:48.215Z,101179.13
2023-02-22T06:23:19.181Z,101175.50
2023-02-22T06:25:50.916Z,101168.31
2023-02-22T06:28:22.219Z,101179.06
2023-02-22T06:30:53.258Z,101182.50
2023-02-22T06:33:24.529Z,101170.06
2023-02-22T06:35:55.812Z,101176.41
2023-02-22T06:38:29.226Z,101174.50
2023-02-22T06:41:00.214Z,101179.28
2023-02-22T06:43:31.392Z,101166.94
2023-02-22T06:46:03.475Z,101171.44
2023-02-22T06:48:34.801Z,101167.53
2023-02-22T06:51:06.230Z,101172.50
2023-02-22T06:53:37.519Z,101174.16
2023-02-22T06:56:09.117Z,101168.38
2023-02-22T06:58:40.195Z,101170.06
2023-02-22T07:01:12.260Z,101170.66
2023-02-22T07:03:43.934Z,101174.69
2023-02-22T07:06:15.446Z,101177.81
2023-02-22T07:08:46.534Z,101183.56
2023-02-22T07:11:18.905Z,101184.69
2023-02-22T07:13:50.040Z,101195.31
2023-02-22T07:16:21.403Z,101191.44
2023-02-22T07:18:52.056Z,101192.72
2023-02-22T07:21:23.053Z,101191.38
2023-02-22T07:23:58.653Z,101203.34
2023-02-22T07:26:30.553Z,101196.94
2023-02-22T07:29:01.780Z,101193.75
2023-02-22T07:31:42.513Z,101198.66
2023-02-22T07:34:22.252Z,101200.22
2023-02-22T07:36:53.137Z,101206.31
2023-02-22T07:39:24.471Z,101199.72
2023-02-22T07:41:55.718Z,101208.53
2023-02-22T07:44:29.421Z,101194.25
2023-02-22T07:47:14.119Z,101201.25
2023-02-22T07:49:45.339Z,101205.91
2023-02-22T07:52:16.625Z,101205.91
2023-02-22T07:54:49.263Z,101205.88
2023-02-22T07:57:20.180Z,101210.69
2023-02-22T07:59:51.213Z,101209.22
2023-02-22T08:02:22.611Z,101207.66
2023-02-22T08:04:53.329Z,101211.91
2023-02-22T08:07:24.448Z,101209.63
2023-02-22T08:09:55.769Z,101210.97
2023-02-22T08:12:26.930Z,101211.72
2023-02-22T08:14:58.294Z,101212.88
2023-02-22T08:17:29.449Z,101209.44
2023-02-22T08:20:00.888Z,101211.00
2023-02-22T08:22:32.804Z,101210.97
2023-02-22T08:25:04.050Z,101205.91
2023-02-22T08:27:35.384Z,101209.91
2023-02-22T08:30:07.151Z,101198.94
2023-02-22T08:32:38.344Z,101202.88
2023-02-22T08:35:09.988Z,101209.38
2023-02-22T08:37:45.733Z,101215.16
2023-02-22T08:40:18.761Z,101214.50
2023-02-22T08:42:49.825Z,101213.88
2023-02-22T08:45:21.269Z,101214.59
2023-02-22T08:47:53.380Z,101209.72
2023-02-22T08:50:26.961Z,101217.13
2023-02-22T08:53:00.695Z,101208.97
2023-02-22T08:55:37.326Z,101219.41
2023-02-22T08:58:13.475Z,101212.38
2023-02-22T09:00:46.196Z,101224.13
2023-02-22T09:03:17.691Z,101215.47
2023-02-22T09:05:49.142Z,101226.03
2023-02-22T09:08:20.478Z,101216.03
2023-02-22T09:10:52.621Z,101215.31
2023-02-22T09:13:23.800Z,101223.25
2023-02-22T09:15:54.703Z,101223.72
2023-02-22T09:18:30.572Z,101227.06
2023-02-22T09:21:07.782Z,101222.84
2023-02-22T09:23:38.798Z,101229.59
2023-02-22T09:26:12.956Z,101220.84
2023-02-22T09:28:43.877Z,101211.31
2023-02-22T09:31:15.146Z,101220.81
2023-02-22T09:33:47.485Z,101218.47
2023-02-22T09:36:19.107Z,101210.38
2023-02-22T09:38:50.260Z,101214.44
2023-02-22T09:41:36.280Z,101220.38
2023-02-22T09:44:31.431Z,101200.56
2023-02-22T09:47:02.867Z,101207.97
2023-02-22T09:49:40.535Z,101211.09
2023-02-22T09:52:20.969Z,101207.41
2023-02-22T09:55:15.094Z,101210.81
2023-02-22T09:57:47.659Z,101213.25
2023-02-22T10:00:25.365Z,101212.28
2023-02-22T10:03:46.870Z,101199.00
2023-02-22T10:06:22.669Z,101200.50
2023-02-22T10:08:59.703Z,101199.22
2023-02-22T10:12:06.020Z,101206.53
2023-02-22T10:15:04.243Z,101195.13
2023-02-22T10:17:57.725Z,101200.00
2023-02-22T10:20:56.234Z,101197.19
2023-02-22T10:24:08.903Z,101193.97
2023-02-22T10:26:44.316Z,101191.66
2023-02-22T10:29:34.061Z,101189.63
2023-02-22T10:32:06.720Z,101188.09
2023-02-22T10:34:50.865Z,101184.91
2023-02-22T10:37:33.743Z,101191.06
2023-02-22T10:40:33.413Z,101186.66
2023-02-22T10:43:10.580Z,101185.66
2023-02-22T10:45:41.561Z,101183.94
2023-02-22T10:48:19.918Z,101182.19
2023-02-22T10:50:52.060Z,101172.41
2023-02-22T10:53:22.250Z,101169.69
2023-02-22T10:56:11.483Z,101164.91
2023-02-22T10:58:57.258Z,101166.81
2023-02-22T11:01:34.175Z,101160.38
2023-02-22T11:04:20.509Z,101156.03
2023-02-22T11:07:01.736Z,101163.25
2023-02-22T11:09:32.850Z,101155.53
2023-02-22T11:12:13.237Z,101148.41
2023-02-22T11:14:44.490Z,101146.25
2023-02-22T11:17:20.601Z,101141.50
2023-02-22T11:19:52.798Z,101142.03
2023-02-22T11:22:25.812Z,101136.66
2023-02-22T11:25:02.786Z,101135.00
2023-02-22T11:27:41.450Z,101141.59
2023-02-22T11:30:34.228Z,101126.16
2023-02-22T11:33:34.357Z,101133.09
2023-02-22T11:36:10.172Z,101133.09
2023-02-22T11:38:42.321Z,101128.94
2023-02-22T11:41:24.309Z,101134.47
2023-02-22T11:43:55.803Z,101131.47
2023-02-22T11:46:30.819Z,101128.94
2023-02-22T11:49:06.715Z,101124.56
2023-02-22T11:51:56.758Z,101122.03
2023-02-22T11:54:39.925Z,101131.47
2023-02-22T11:57:23.519Z,101129.34
2023-02-22T12:00:00.782Z,101124.63
2023-02-22T12:02:51.802Z,101122.97
2023-02-22T12:06:00.764Z,101127.50
2023-02-22T12:08:55.317Z,101117.66
2023-02-22T12:11:34.723Z,101116.75
2023-02-22T12:14:24.519Z,101121.88
2023-02-22T12:16:56.431Z,101125.41
2023-02-22T12:19:30.643Z,101107.22
2023-02-22T12:22:20.089Z,101126.28
2023-02-22T12:25:09.846Z,101114.22
2023-02-22T12:28:00.480Z,101120.34
2023-02-22T12:30:40.017Z,101111.03
2023-02-22T12:33:17.771Z,101121.69
2023-02-22T12:35:57.289Z,101115.97
2023-02-22T12:38:38.829Z,101113.78
2023-02-22T12:41:12.860Z,101115.88
2023-02-22T12:43:48.755Z,101107.06
2023-02-22T12:46:41.228Z,101096.19
2023-02-22T12:49:48.751Z,101105.44
2023-02-22T12:53:08.136Z,101105.94
2023-02-22T12:55:55.126Z,101097.91
2023-02-22T12:58:38.403Z,101097.38
2023-02-22T13:01:22.822Z,101097.59
2023-02-22T13:03:57.380Z,101092.94
2023-02-22T13:06:28.918Z,101094.78
2023-02-22T13:09:25.922Z,101085.22
2023-02-22T13:12:19.839Z,101089.09
2023-02-22T13:15:18.593Z,101076.47
2023-02-22T13:18:02.034Z,101076.56
2023-02-22T13:20:36.994Z,101071.03
2023-02-22T13:23:11.735Z,101078.81
2023-02-22T13:25:59.050Z,101076.88
2023-02-22T13:28:42.403Z,101069.25
2023-02-22T13:31:25.187Z,101068.41
2023-02-22T13:34:20.652Z,101061.28
2023-02-22T13:37:00.564Z,101065.53
2023-02-22T13:40:09.373Z,101063.44
2023-02-22T13:42:58.358Z,101065.59
2023-02-22T13:45:47.468Z,101059.81
2023-02-22T13:48:46.231Z,101056.94
2023-02-22T13:51:38.858Z,101064.44
2023-02-22T13:54:15.063Z,101053.31
2023-02-22T13:56:51.400Z,101051.38
2023-02-22T13:59:25.522Z,101043.69
2023-02-22T14:01:57.907Z,101046.78
2023-02-22T14:04:32.238Z,101042.41
2023-02-22T14:07:22.797Z,101044.06
2023-02-22T14:09:57.431Z,101047.91
2023-02-22T14:12:31.662Z,101042.97
2023-02-22T14:15:32.703Z,101050.44
2023-02-22T14:18:19.156Z,101044.66
2023-02-22T14:21:10.741Z,101051.22
2023-02-22T14:23:46.023Z,101040.59
2023-02-22T14:26:22.545Z,101044.16
2023-02-22T14:28:55.953Z,101045.81
2023-02-22T14:31:36.426Z,101036.03
2023-02-22T14:34:18.816Z,101036.53
2023-02-22T14:37:11.484Z,101040.38
2023-02-22T14:39:54.871Z,101041.25
2023-02-22T14:42:36.486Z,101032.56
2023-02-22T14:45:18.547Z,101032.84
2023-02-22T14:48:02.564Z,101032.03
2023-02-22T14:50:42.760Z,101034.75
2023-02-22T14:53:49.833Z,101034.50
2023-02-22T14:56:57.150Z,101034.75
2023-02-22T14:59:29.623Z,101038.84
2023-02-22T15:02:11.819Z,101038.06
2023-02-22T15:04:46.118Z,101030.66
2023-02-22T15:07:30.913Z,101030.94
2023-02-22T15:10:27.358Z,101021.69
2023-02-22T15:13:12.377Z,101024.13
2023-02-22T15:15:49.214Z,101026.63
2023-02-22T15:18:50.041Z,101025.25
2023-02-22T15:21:27.336Z,101024.97
2023-02-22T15:24:04.985Z,101028.53
2023-02-22T15:26:37.649Z,101027.19
2023-02-22T15:29:33.046Z,101028.81
2023-02-22T15:32:04.047Z,101021.69
2023-02-22T15:34:35.516Z,101021.94
2023-02-22T15:37:27.026Z,101024.06
2023-02-22T15:40:34.404Z,101019.72
2023-02-22T15:43:12.639Z,101012.72
2023-02-22T15:45:44.201Z,101020.59
2023-02-22T15:48:17.260Z,101020.31
2023-02-22T15:51:15.662Z,101018.69
2023-02-22T15:53:49.323Z,101018.41
2023-02-22T15:56:31.358Z,101023.00
2023-02-22T15:59:24.004Z,101024.66
2023-02-22T16:01:55.786Z,101020.31
2023-02-22T16:04:29.923Z,101018.94
2023-02-22T16:07:18.155Z,101017.34
2023-02-22T16:09:51.250Z,101026.25
2023-02-22T16:12:30.295Z,101013.97
2023-02-22T16:15:01.554Z,101008.56
2023-02-22T16:17:56.041Z,101017.59
2023-02-22T16:20:34.060Z,101010.25
2023-02-22T16:23:25.742Z,101003.13
2023-02-22T16:26:21.009Z,101006.09
2023-02-22T16:28:54.753Z,101006.06
2023-02-22T16:31:31.737Z,101005.50
2023-02-22T16:34:04.077Z,101012.34
2023-02-22T16:36:46.905Z,101009.38
2023-02-22T16:39:36.219Z,101009.69
2023-02-22T16:42:11.153Z,101015.38
2023-02-22T16:44:42.255Z,101021.91
2023-02-22T16:47:14.754Z,101016.47
2023-02-22T16:49:46.462Z,101019.53
2023-02-22T16:52:17.637Z,101013.50
2023-02-22T16:54:49.359Z,101020.03
2023-02-22T16:57:24.712Z,101021.31
2023-02-22T16:59:56.996Z,101015.91
2023-02-22T17:02:29.228Z,101017.28
2023-02-22T17:05:00.554Z,101012.09
2023-02-22T17:07:33.334Z,101006.34
2023-02-22T17:10:04.587Z,101012.16
2023-02-22T17:12:35.699Z,101014.06
2023-02-22T17:15:08.791Z,101013.25
2023-02-22T17:17:40.070Z,101015.13
2023-02-22T17:20:14.924Z,101015.13
2023-02-22T17:22:46.212Z,101013.75
2023-02-22T17:25:27.027Z,101014.00
2023-02-22T17:27:58.463Z,101016.47
2023-02-22T17:30:29.847Z,101011.53
2023-02-22T17:33:05.869Z,101015.41
2023-02-22T17:35:40.308Z,101013.84
2023-02-22T17:38:11.399Z,101019.78
2023-02-22T17:40:42.994Z,101019.22
2023-02-22T17:43:14.171Z,101014.06
2023-02-22T17:45:45.509Z,101021.69
2023-02-22T17:48:18.257Z,101020.34
2023-02-22T17:50:51.015Z,101032.28
2023-02-22T17:53:25.858Z,101038.00
2023-02-22T17:55:57.355Z,101040.47
2023-02-22T17:58:32.325Z,101030.69
2023-02-22T18:01:04.766Z,101030.69
2023-02-22T18:03:36.304Z,101032.34
2023-02-22T18:06:07.441Z,101041.03
2023-02-22T18:08:40.508Z,101035.59
2023-02-22T18:11:11.821Z,101036.13
2023-02-22T18:13:42.790Z,101026.91
2023-02-22T18:16:13.747Z,101036.44
2023-02-22T18:18:45.310Z,101036.13
2023-02-22T18:21:17.708Z,101047.84
2023-02-22T18:23:48.995Z,101045.94
2023-02-22T18:26:22.549Z,101048.38
2023-02-22T18:28:55.219Z,101045.09
2023-02-22T18:31:26.401Z,101049.13
2023-02-22T18:33:59.010Z,101034.31
2023-02-22T18:36:30.000Z,101041.38
2023-02-22T18:39:01.086Z,101039.28
2023-02-22T18:41:32.442Z,101043.59
2023-02-22T18:44:04.764Z,101040.59
2023-02-22T18:46:36.023Z,101040.84
2023-02-22T18:49:07.413Z,101048.41
2023-02-22T18:51:38.566Z,101044.25
2023-02-22T18:54:09.767Z,101044.13
2023-02-22T18:56:41.720Z,101044.41
2023-02-22T18:59:14.738Z,101043.09
2023-02-22T19:01:50.469Z,101046.09
2023-02-22T19:04:23.083Z,101050.66
2023-02-22T19:06:56.890Z,101054.31
2023-02-22T19:09:28.941Z,101051.91
2023-02-22T19:12:00.440Z,101045.78
2023-02-22T19:14:31.829Z,101054.81
2023-02-22T19:17:04.336Z,101050.19
2023-02-22T19:19:36.552Z,101049.75
2023-02-22T19:22:07.740Z,101054.66
2023-02-22T19:24:41.089Z,101040.31
2023-02-22T19:27:13.052Z,101046.06
2023-02-22T19:29:44.118Z,101047.66
2023-02-22T19:32:15.338Z,101050.91
2023-02-22T19:34:46.619Z,101044.78
2023-02-22T19:37:20.165Z,101047.69
2023-02-22T19:39:51.315Z,101042.72
2023-02-22T19:42:22.651Z,101041.94
2023-02-22T19:44:54.835Z,101031.28
2023-02-22T19:47:27.865Z,101033.03
2023-02-22T19:50:00.115Z,101030.53
2023-02-22T19:52:34.022Z,101029.44
2023-02-22T19:55:05.887Z,101023.84
2023-02-22T19:57:37.360Z,101029.75
2023-02-22T20:00:12.768Z,101024.91
2023-02-22T20:02:45.084Z,101018.31
2023-02-22T20:05:17.881Z,101013.38
2023-02-22T20:07:49.461Z,101008.28
2023-02-22T20:10:20.729Z,101011.97
2023-02-22T20:12:51.862Z,101011.16
2023-02-22T20:15:25.350Z,101011.69
2023-02-22T20:17:57.036Z,101010.31
2023-02-22T20:20:30.572Z,101005.75
2023-02-22T20:23:02.001Z,101008.28
2023-02-22T20:25:33.178Z,101009.66
2023-02-22T20:28:05.205Z,101016.34
2023-02-22T20:30:39.663Z,101019.78
2023-02-22T20:33:11.596Z,101016.53
2023-02-22T20:35:42.776Z,101009.50
2023-02-22T20:38:15.325Z,100999.22
2023-02-22T20:40:48.195Z,100996.88
2023-02-22T20:43:19.185Z,100999.81
2023-02-22T20:45:50.549Z,100992.63
2023-02-22T20:48:21.703Z,100994.25
2023-02-22T20:50:53.182Z,100985.53
2023-02-22T20:53:24.404Z,100986.81
2023-02-22T20:55:57.150Z,100987.63
2023-02-22T20:58:28.541Z,100981.22
2023-02-22T21:01:06.777Z,100983.16
2023-02-22T21:03:38.867Z,100987.88
2023-02-22T21:06:13.234Z,100990.00
2023-02-22T21:08:45.354Z,100990.00
2023-02-22T21:11:17.999Z,100991.72
2023-02-22T21:13:49.491Z,101002.63
2023-02-22T21:16:23.880Z,100997.00
2023-02-22T21:18:56.231Z,100997.19
2023-02-22T21:21:27.992Z,101000.94
2023-02-22T21:24:03.098Z,101000.41
2023-02-22T21:26:35.848Z,100995.78
2023-02-22T21:29:08.423Z,100997.50
2023-02-22T21:31:39.563Z,100997.78
2023-02-22T21:34:13.472Z,100992.78
2023-02-22T21:36:44.493Z,100988.38
2023-02-22T21:39:19.652Z,100987.13
2023-02-22T21:41:53.230Z,100989.84
2023-02-22T21:44:24.274Z,100981.75
2023-02-22T21:46:55.302Z,100981.00
2023-02-22T21:49:26.639Z,100981.81
2023-02-22T21:51:57.934Z,100980.47
2023-02-22T21:54:29.391Z,100977.63
2023-02-22T21:57:01.319Z,100974.19
2023-02-22T21:59:31.908Z,100981.78
2023-02-22T22:02:03.117Z,100987.72
2023-02-22T22:04:36.420Z,100985.06
2023-02-22T22:07:07.536Z,100985.09
2023-02-22T22:09:42.612Z,100985.59
2023-02-22T22:12:13.722Z,100986.22
2023-02-22T22:14:44.895Z,100980.78
2023-02-22T22:17:16.132Z,100980.13
2023-02-22T22:19:50.227Z,100981.63
2023-02-22T22:22:21.858Z,100989.78
2023-02-22T22:24:55.313Z,100994.88
2023-02-22T22:27:26.668Z,100988.66
2023-02-22T22:29:58.836Z,100989.59
2023-02-22T22:32:33.664Z,100988.16
2023-02-22T22:35:08.472Z,100986.88
2023-02-22T22:37:40.790Z,100992.25
2023-02-22T22:40:17.155Z,100986.09
2023-02-22T22:42:48.760Z,100992.31
2023-02-22T22:45:19.601Z,100990.53
2023-02-22T22:47:50.572Z,100982.41
2023-02-22T22:50:27.769Z,100983.13
2023-02-22T22:52:59.598Z,100989.69
2023-02-22T22:55:30.711Z,100992.63
2023-02-22T22:58:01.888Z,100988.69
2023-02-22T23:00:42.844Z,100981.56
2023-02-22T23:03:19.362Z,100993.16
2023-02-22T23:05:51.540Z,100986.63
2023-02-22T23:08:30.676Z,100984.22
2023-02-22T23:11:01.866Z,100980.16
2023-02-22T23:13:32.947Z,100984.91
2023-02-22T23:16:03.880Z,100982.81
2023-02-22T23:18:35.805Z,100975.50
2023-02-22T23:21:07.689Z,100973.56
2023-02-22T23:23:39.636Z,100974.91
2023-02-22T23:26:19.659Z,100975.50
2023-02-22T23:28:51.073Z,100971.25
2023-02-22T23:31:22.322Z,100967.00
2023-02-22T23:33:54.108Z,100963.88
2023-02-22T23:36:25.438Z,100965.31
2023-02-22T23:38:57.311Z,100955.66
2023-02-22T23:41:30.152Z,100957.06
2023-02-22T23:44:01.497Z,100932.84
2023-02-22T23:46:34.333Z,100936.34
2023-02-22T23:49:06.984Z,100938.84
2023-02-22T23:51:43.472Z,100934.28
2023-02-22T23:54:16.547Z,100937.22
2023-02-22T23:57:00.150Z,100930.63
2023-02-22T23:59:32.322Z,100939.13
